createdAt,value
2024-03-02T00:02:03.883Z,100.00
2024-03-02T00:04:33.727Z,100.00
2024-03-02T00:07:00.663Z,100.00
2024-03-02T00:09:28.439Z,100.00
2024-03-02T00:11:58.059Z,100.00
2024-03-02T00:14:32.049Z,100.00
2024-03-02T00:16:59.753Z,100.00
2024-03-02T00:19:26.394Z,100.00
2024-03-02T00:21:53.262Z,100.00
2024-03-02T00:24:26.522Z,100.00
2024-03-02T00:26:54.804Z,100.00
2024-03-02T00:29:23.697Z,100.00
2024-03-02T00:32:00.640Z,100.00
2024-03-02T00:34:27.625Z,100.00
2024-03-02T00:36:54.255Z,100.00
2024-03-02T00:39:23.528Z,100.00
2024-03-02T00:41:50.068Z,100.00
2024-03-02T00:44:26.384Z,100.00
2024-03-02T00:47:18.998Z,100.00
2024-03-02T00:49:48.191Z,100.00
2024-03-02T00:52:14.870Z,100.00
2024-03-02T00:54:44.112Z,100.00
2024-03-02T00:57:17.215Z,100.00
2024-03-02T00:59:43.830Z,100.00
2024-03-02T01:02:18.197Z,100.00
2024-03-02T01:04:45.607Z,100.00
2024-03-02T01:07:16.939Z,100.00
2024-03-02T01:09:43.940Z,100.00
2024-03-02T01:12:13.281Z,100.00
2024-03-02T01:14:39.891Z,100.00
2024-03-02T01:17:06.730Z,100.00
2024-03-02T01:19:46.723Z,100.00
2024-03-02T01:22:23.831Z,100.00
2024-03-02T01:25:04.251Z,100.00
2024-03-02T01:27:33.441Z,100.00
2024-03-02T01:30:03.435Z,100.00
2024-03-02T01:32:30.047Z,100.00
2024-03-02T01:35:23.006Z,100.00
2024-03-02T01:38:06.892Z,100.00
2024-03-02T01:40:37.257Z,100.00
2024-03-02T01:43:10.749Z,100.00
2024-03-02T01:45:39.713Z,100.00
2024-03-02T01:48:09.514Z,100.00
2024-03-02T01:50:42.932Z,100.00
2024-03-02T01:53:12.702Z,100.00
2024-03-02T01:55:40.900Z,100.00
2024-03-02T01:58:07.493Z,100.00
2024-03-02T02:00:35.478Z,100.00
2024-03-02T02:03:06.637Z,100.00
2024-03-02T02:05:33.874Z,100.00
2024-03-02T02:08:09.952Z,100.00
2024-03-02T02:10:37.618Z,100.00
2024-03-02T02:13:04.499Z,100.00
2024-03-02T02:15:31.847Z,100.00
2024-03-02T02:18:02.250Z,100.00
2024-03-02T02:20:34.032Z,100.00
2024-03-02T02:23:04.934Z,100.00
2024-03-02T02:25:36.586Z,100.00
2024-03-02T02:28:04.519Z,100.00
2024-03-02T02:30:33.548Z,100.00
2024-03-02T02:33:09.887Z,100.00
2024-03-02T02:35:39.409Z,100.00
2024-03-02T02:38:09.133Z,100.00
2024-03-02T02:40:35.742Z,100.00
2024-03-02T02:43:08.693Z,100.00
2024-03-02T02:45:38.897Z,100.00
2024-03-02T02:48:14.487Z,100.00
2024-03-02T02:51:01.222Z,100.00
2024-03-02T02:53:27.763Z,100.00
2024-03-02T02:55:54.489Z,100.00
2024-03-02T02:58:21.094Z,100.00
2024-03-02T03:00:47.915Z,100.00
2024-03-02T03:03:16.041Z,100.00
2024-03-02T03:05:57.064Z,100.00
2024-03-02T03:08:32.786Z,100.00
2024-03-02T03:10:59.485Z,100.00
2024-03-02T03:13:31.044Z,100.00
2024-03-02T03:16:02.075Z,100.00
2024-03-02T03:18:29.897Z,100.00
2024-03-02T03:20:56.475Z,100.00
2024-03-02T03:23:26.649Z,100.00
2024-03-02T03:25:55.784Z,100.00
2024-03-02T03:28:25.887Z,100.00
2024-03-02T03:31:00.645Z,100.00
2024-03-02T03:33:27.543Z,100.00
2024-03-02T03:35:55.941Z,100.00
2024-03-02T03:38:22.541Z,100.00
2024-03-02T03:40:52.026Z,100.00
2024-03-02T03:43:18.940Z,100.00
2024-03-02T03:45:48.310Z,100.00
2024-03-02T03:48:15.990Z,100.00
2024-03-02T03:50:45.618Z,100.00
2024-03-02T03:53:13.770Z,100.00
2024-03-02T03:55:57.297Z,100.00
2024-03-02T03:58:28.844Z,100.00
2024-03-02T04:00:58.809Z,100.00
2024-03-02T04:03:28.674Z,100.00
2024-03-02T04:05:55.522Z,100.00
2024-03-02T04:08:22.006Z,100.00
2024-03-02T04:10:48.775Z,100.00
2024-03-02T04:13:25.731Z,100.00
2024-03-02T04:15:53.385Z,100.00
2024-03-02T04:18:21.233Z,100.00
2024-03-02T04:20:48.874Z,100.00
2024-03-02T04:23:20.307Z,100.00
2024-03-02T04:25:48.565Z,100.00
2024-03-02T04:28:16.760Z,100.00
2024-03-02T04:30:46.110Z,100.00
2024-03-02T04:33:32.788Z,100.00
2024-03-02T04:36:17.174Z,100.00
2024-03-02T04:38:51.402Z,100.00
2024-03-02T04:41:23.801Z,100.00
2024-03-02T04:43:51.167Z,100.00
2024-03-02T04:46:17.513Z,100.00
2024-03-02T04:48:48.246Z,100.00
2024-03-02T04:51:15.385Z,100.00
2024-03-02T04:53:43.256Z,100.00
2024-03-02T04:56:18.867Z,100.00
2024-03-02T04:58:52.866Z,100.00
2024-03-02T05:01:33.339Z,100.00
2024-03-02T05:04:09.157Z,100.00
2024-03-02T05:06:38.461Z,100.00
2024-03-02T05:09:05.236Z,100.00
2024-03-02T05:11:33.596Z,100.00
2024-03-02T05:14:00.105Z,100.00
2024-03-02T05:16:47.901Z,100.00
2024-03-02T05:19:26.705Z,100.00
2024-03-02T05:22:00.665Z,100.00
2024-03-02T05:24:29.455Z,100.00
2024-03-02T05:26:57.314Z,100.00
2024-03-02T05:29:49.007Z,100.00
2024-03-02T05:32:14.033Z,100.00
2024-03-02T05:34:45.404Z,100.00
2024-03-02T05:37:14.846Z,100.00
2024-03-02T05:39:41.501Z,100.00
2024-03-02T05:42:09.039Z,100.00
2024-03-02T05:44:39.227Z,100.00
2024-03-02T05:47:23.423Z,100.00
2024-03-02T05:49:54.287Z,100.00
2024-03-02T05:52:42.400Z,100.00
2024-03-02T05:55:09.539Z,100.00
2024-03-02T05:57:43.074Z,100.00
2024-03-02T06:03:22.250Z,100.00
2024-03-02T06:09:50.751Z,100.00
2024-03-02T06:12:17.758Z,100.00
2024-03-02T06:20:44.057Z,100.00
2024-03-02T06:23:14.154Z,100.00
2024-03-02T06:31:32.027Z,100.00
2024-03-02T06:34:34.348Z,100.00
2024-03-02T06:37:40.683Z,100.00
2024-03-02T06:43:24.915Z,100.00
2024-03-02T06:45:54.196Z,100.00
2024-03-02T06:48:23.892Z,100.00
2024-03-02T06:51:16.508Z,100.00
2024-03-02T06:53:43.836Z,100.00
2024-03-02T06:56:13.606Z,100.00
2024-03-02T06:59:05.019Z,100.00
2024-03-02T07:02:00.746Z,100.00
2024-03-02T07:04:48.405Z,100.00
2024-03-02T07:07:14.882Z,100.00
2024-03-02T07:09:45.799Z,100.00
2024-03-02T07:15:19.221Z,100.00
2024-03-02T07:17:57.366Z,100.00
2024-03-02T07:20:34.687Z,100.00
2024-03-02T07:28:52.562Z,100.00
2024-03-02T07:31:39.671Z,100.00
2024-03-02T07:34:22.483Z,100.00
2024-03-02T07:36:49.003Z,100.00
2024-03-02T07:39:26.192Z,100.00
2024-03-02T07:42:01.378Z,100.00
2024-03-02T07:45:09.619Z,100.00
2024-03-02T07:47:41.158Z,100.00
2024-03-02T07:50:16.125Z,100.00
2024-03-02T07:52:44.769Z,100.00
2024-03-02T07:55:28.809Z,100.00
2024-03-02T07:58:04.567Z,100.00
2024-03-02T08:00:35.932Z,100.00
2024-03-02T08:03:05.284Z,100.00
2024-03-02T08:05:34.317Z,100.00
2024-03-02T08:13:31.866Z,100.00
2024-03-02T08:16:31.852Z,100.00
2024-03-02T08:22:31.641Z,100.00
2024-03-02T08:25:08.280Z,100.00
2024-03-02T08:27:55.611Z,100.00
2024-03-02T08:30:31.269Z,100.00
2024-03-02T08:36:19.759Z,100.00
2024-03-02T08:38:53.617Z,100.00
2024-03-02T08:41:30.317Z,100.00
2024-03-02T08:43:59.171Z,100.00
2024-03-02T08:46:27.133Z,100.00
2024-03-02T08:49:00.181Z,100.00
2024-03-02T08:51:27.071Z,100.00
2024-03-02T08:53:55.594Z,100.00
2024-03-02T08:56:22.293Z,100.00
2024-03-02T08:58:49.002Z,100.00
2024-03-02T09:01:25.768Z,100.00
2024-03-02T09:04:18.271Z,100.00
2024-03-02T09:06:52.368Z,100.00
2024-03-02T09:09:36.648Z,100.00
2024-03-02T09:12:06.042Z,100.00
2024-03-02T09:14:50.772Z,100.00
2024-03-02T09:17:19.530Z,100.00
2024-03-02T09:20:02.497Z,100.00
2024-03-02T09:22:31.859Z,100.00
2024-03-02T09:25:00.878Z,100.00
2024-03-02T09:27:31.873Z,100.00
2024-03-02T09:30:11.206Z,100.00
2024-03-02T09:32:50.886Z,100.00
2024-03-02T09:35:28.749Z,100.00
2024-03-02T09:37:59.177Z,100.00
2024-03-02T09:40:27.080Z,100.00
2024-03-02T09:42:56.233Z,100.00
2024-03-02T09:45:31.729Z,100.00
2024-03-02T09:47:58.359Z,100.00
2024-03-02T09:50:31.431Z,100.00
2024-03-02T09:52:58.118Z,100.00
2024-03-02T09:55:30.083Z,100.00
2024-03-02T09:57:56.830Z,100.00
2024-03-02T10:00:23.513Z,100.00
2024-03-02T10:02:54.980Z,100.00
2024-03-02T10:05:28.564Z,100.00
2024-03-02T10:13:31.225Z,100.00
2024-03-02T10:16:13.815Z,100.00
2024-03-02T10:18:42.936Z,100.00
2024-03-02T10:21:23.427Z,100.00
2024-03-02T10:23:50.001Z,100.00
2024-03-02T10:26:38.375Z,100.00
2024-03-02T10:29:18.103Z,100.00
2024-03-02T10:35:05.585Z,100.00
2024-03-02T10:37:59.416Z,100.00
2024-03-02T10:40:47.149Z,100.00
2024-03-02T10:43:16.301Z,100.00
2024-03-02T10:46:11.150Z,100.00
2024-03-02T10:48:48.563Z,100.00
2024-03-02T11:01:40.893Z,100.00
2024-03-02T11:04:23.041Z,100.00
2024-03-02T11:07:09.658Z,100.00
2024-03-02T11:10:00.535Z,100.00
2024-03-02T11:12:42.812Z,100.00
2024-03-02T11:15:24.605Z,97.55
2024-03-02T11:17:54.283Z,98.68
2024-03-02T11:24:31.951Z,87.65
2024-03-02T11:27:46.482Z,82.41
2024-03-02T11:30:35.289Z,82.12
2024-03-02T11:33:13.701Z,84.28
2024-03-02T11:35:48.389Z,80.28
2024-03-02T11:38:27.038Z,84.93
2024-03-02T11:40:53.712Z,82.13
2024-03-02T11:43:21.689Z,89.44
2024-03-02T11:46:01.613Z,84.05
2024-03-02T11:48:30.666Z,78.30
2024-03-02T11:51:03.021Z,79.72
2024-03-02T11:53:35.488Z,83.17
2024-03-02T11:56:10.695Z,87.79
2024-03-02T11:58:41.131Z,80.85
2024-03-02T12:01:28.313Z,88.63
2024-03-02T12:04:00.024Z,89.63
2024-03-02T12:06:27.459Z,91.89
2024-03-02T12:08:56.962Z,83.20
2024-03-02T12:11:48.152Z,79.70
2024-03-02T12:14:21.094Z,75.24
2024-03-02T12:17:02.160Z,80.72
2024-03-02T12:19:36.248Z,79.69
2024-03-02T12:22:02.890Z,79.10
2024-03-02T12:24:44.736Z,75.45
2024-03-02T12:28:18.587Z,75.91
2024-03-02T12:30:31.491Z,76.94
2024-03-02T12:33:01.441Z,78.40
2024-03-02T12:35:27.862Z,83.76
2024-03-02T12:38:09.258Z,79.81
2024-03-02T12:40:42.849Z,77.77
2024-03-02T12:43:36.941Z,78.86
2024-03-02T12:46:31.805Z,75.47
2024-03-02T12:49:27.415Z,77.74
2024-03-02T12:51:57.033Z,75.94
2024-03-02T12:54:28.085Z,76.69
2024-03-02T13:00:27.396Z,72.86
2024-03-02T13:03:31.678Z,76.23
2024-03-02T13:05:59.564Z,86.17
2024-03-02T13:08:26.085Z,85.42
2024-03-02T13:12:07.899Z,88.11
2024-03-02T13:14:43.499Z,95.91
2024-03-02T13:17:16.851Z,100.00
2024-03-02T13:19:59.703Z,86.77
2024-03-02T13:22:50.264Z,91.06
2024-03-02T13:25:19.863Z,97.21
2024-03-02T13:30:42.598Z,100.00
2024-03-02T13:33:13.938Z,100.00
2024-03-02T13:35:45.945Z,100.00
2024-03-02T13:49:48.909Z,100.00
2024-03-02T13:52:20.584Z,100.00
2024-03-02T13:55:13.968Z,100.00
2024-03-02T13:58:00.953Z,93.38
2024-03-02T14:00:42.719Z,95.57
2024-03-02T14:03:13.157Z,97.18
2024-03-02T14:05:40.358Z,97.59
2024-03-02T14:08:09.460Z,99.21
2024-03-02T14:10:48.587Z,99.20
2024-03-02T14:13:27.098Z,100.00
2024-03-02T14:16:00.787Z,94.76
2024-03-02T14:19:21.750Z,96.88
2024-03-02T14:21:32.482Z,100.00
2024-03-02T14:27:24.420Z,100.00
2024-03-02T14:30:16.066Z,100.00
2024-03-02T14:35:37.895Z,100.00
2024-03-02T14:40:54.577Z,100.00
2024-03-02T14:44:13.608Z,100.00
2024-03-02T14:46:53.762Z,100.00
2024-03-02T14:49:35.981Z,100.00
2024-03-02T14:52:16.313Z,100.00
2024-03-02T14:54:45.464Z,100.00
2024-03-02T14:57:17.296Z,100.00
2024-03-02T15:02:41.369Z,100.00
2024-03-02T15:05:18.187Z,100.00
2024-03-02T15:08:14.998Z,100.00
2024-03-02T15:11:20.150Z,100.00
2024-03-02T15:16:42.622Z,100.00
2024-03-02T15:19:11.344Z,100.00
2024-03-02T15:21:40.791Z,100.00
2024-03-02T15:24:10.298Z,100.00
2024-03-02T15:26:38.609Z,100.00
2024-03-02T15:29:11.638Z,100.00
2024-03-02T15:32:00.100Z,100.00
2024-03-02T15:37:28.861Z,100.00
2024-03-02T15:40:23.189Z,100.00
2024-03-02T15:45:01.770Z,100.00
2024-03-02T15:46:28.744Z,100.00
2024-03-02T15:52:51.992Z,100.00
2024-03-02T15:58:39.025Z,100.00
2024-03-02T16:04:38.542Z,100.00
2024-03-02T16:25:43.974Z,100.00
2024-03-02T16:28:40.245Z,100.00
2024-03-02T16:31:14.741Z,100.00
2024-03-02T16:33:47.907Z,100.00
2024-03-02T16:36:17.380Z,100.00
2024-03-02T16:38:44.076Z,100.00
2024-03-02T16:41:14.900Z,100.00
2024-03-02T16:43:41.419Z,100.00
2024-03-02T16:46:10.674Z,100.00
2024-03-02T16:48:37.259Z,100.00
2024-03-02T16:51:06.642Z,100.00
2024-03-02T16:53:34.564Z,100.00
2024-03-02T16:56:01.579Z,100.00
2024-03-02T16:58:27.991Z,100.00
2024-03-02T17:00:54.521Z,100.00
2024-03-02T17:03:21.110Z,100.00
2024-03-02T17:05:47.573Z,100.00
2024-03-02T17:08:14.093Z,100.00
2024-03-02T17:10:40.675Z,100.00
2024-03-02T17:13:07.234Z,100.00
2024-03-02T17:15:33.667Z,100.00
2024-03-02T17:18:00.235Z,100.00
2024-03-02T17:20:26.994Z,100.00
2024-03-02T17:22:53.418Z,100.00
2024-03-02T17:25:22.190Z,100.00
2024-03-02T17:27:48.995Z,100.00
2024-03-02T17:30:15.746Z,100.00
2024-03-02T17:32:42.216Z,100.00
2024-03-02T17:35:08.877Z,100.00
2024-03-02T17:37:35.342Z,100.00
2024-03-02T17:40:02.044Z,100.00
2024-03-02T17:42:28.513Z,100.00
2024-03-02T17:44:55.198Z,100.00
2024-03-02T17:47:21.599Z,100.00
2024-03-02T17:49:55.888Z,100.00
2024-03-02T17:52:22.529Z,100.00
2024-03-02T17:54:49.221Z,100.00
2024-03-02T17:57:15.644Z,100.00
2024-03-02T17:59:44.795Z,100.00
2024-03-02T18:02:14.319Z,100.00
2024-03-02T18:04:48.075Z,100.00
2024-03-02T18:07:14.884Z,100.00
2024-03-02T18:09:41.530Z,100.00
2024-03-02T18:12:08.494Z,100.00
2024-03-02T18:14:37.122Z,100.00
2024-03-02T18:17:04.914Z,100.00
2024-03-02T18:19:31.432Z,100.00
2024-03-02T18:21:58.597Z,100.00
2024-03-02T18:24:25.029Z,100.00
2024-03-02T18:26:53.269Z,100.00
2024-03-02T18:29:19.641Z,100.00
2024-03-02T18:31:46.149Z,100.00
2024-03-02T18:34:13.833Z,100.00
2024-03-02T18:36:40.409Z,100.00
2024-03-02T18:39:06.863Z,100.00
2024-03-02T18:41:33.514Z,100.00
2024-03-02T18:44:00.050Z,100.00
2024-03-02T18:46:26.513Z,100.00
2024-03-02T18:48:53.083Z,100.00
2024-03-02T18:51:21.915Z,100.00
2024-03-02T18:53:51.494Z,100.00
2024-03-02T18:56:18.360Z,100.00
2024-03-02T18:58:44.883Z,100.00
2024-03-02T19:01:11.727Z,100.00
2024-03-02T19:03:38.198Z,100.00
2024-03-02T19:06:04.902Z,100.00
2024-03-02T19:08:31.275Z,100.00
2024-03-02T19:10:57.683Z,100.00
2024-03-02T19:13:24.081Z,100.00
2024-03-02T19:15:50.746Z,100.00
2024-03-02T19:18:17.459Z,100.00
2024-03-02T19:20:44.567Z,100.00
2024-03-02T19:23:18.909Z,100.00
2024-03-02T19:25:51.862Z,100.00
2024-03-02T19:28:18.434Z,100.00
2024-03-02T19:30:46.768Z,100.00
2024-03-02T19:33:14.019Z,100.00
2024-03-02T19:35:40.442Z,100.00
2024-03-02T19:38:07.118Z,100.00
2024-03-02T19:40:36.809Z,100.00
2024-03-02T19:43:03.308Z,100.00
2024-03-02T19:45:29.829Z,100.00
2024-03-02T19:47:56.221Z,100.00
2024-03-02T19:50:22.881Z,100.00
2024-03-02T19:52:53.108Z,100.00
2024-03-02T19:55:19.795Z,100.00
2024-03-02T19:57:46.397Z,100.00
2024-03-02T20:00:16.501Z,100.00
2024-03-02T20:02:46.086Z,100.00
2024-03-02T20:05:12.549Z,100.00
2024-03-02T20:07:40.807Z,100.00
2024-03-02T20:10:08.424Z,100.00
2024-03-02T20:12:35.006Z,100.00
2024-03-02T20:15:02.242Z,100.00
2024-03-02T20:17:28.738Z,100.00
2024-03-02T20:19:55.531Z,100.00
2024-03-02T20:22:22.477Z,100.00
2024-03-02T20:24:48.979Z,100.00
2024-03-02T20:27:18.968Z,100.00
2024-03-02T20:29:45.796Z,100.00
2024-03-02T20:32:16.062Z,100.00
2024-03-02T20:34:42.487Z,100.00
2024-03-02T20:37:09.051Z,100.00
2024-03-02T20:39:35.568Z,100.00
2024-03-02T20:42:02.019Z,100.00
2024-03-02T20:44:28.464Z,100.00
2024-03-02T20:46:55.045Z,100.00
2024-03-02T20:49:21.832Z,100.00
2024-03-02T20:51:48.459Z,100.00
2024-03-02T20:54:17.820Z,100.00
2024-03-02T20:56:44.601Z,100.00
2024-03-02T20:59:11.690Z,100.00
2024-03-02T21:01:38.876Z,100.00
2024-03-02T21:04:05.633Z,100.00
2024-03-02T21:06:32.175Z,100.00
2024-03-02T21:08:58.649Z,100.00
2024-03-02T21:11:25.150Z,100.00
2024-03-02T21:13:51.537Z,100.00
2024-03-02T21:16:18.146Z,100.00
2024-03-02T21:18:44.658Z,100.00
2024-03-02T21:21:11.322Z,100.00
2024-03-02T21:23:37.899Z,100.00
2024-03-02T21:26:04.619Z,100.00
2024-03-02T21:28:31.306Z,100.00
2024-03-02T21:30:57.812Z,100.00
2024-03-02T21:33:27.613Z,100.00
2024-03-02T21:35:54.156Z,100.00
2024-03-02T21:38:20.643Z,100.00
2024-03-02T21:40:47.161Z,100.00
2024-03-02T21:43:13.909Z,100.00
2024-03-02T21:45:40.392Z,100.00
2024-03-02T21:48:07.163Z,100.00
2024-03-02T21:50:33.679Z,100.00
2024-03-02T21:53:00.708Z,100.00
2024-03-02T21:55:27.051Z,100.00
2024-03-02T21:57:56.284Z,100.00
2024-03-02T22:00:22.851Z,100.00
2024-03-02T22:02:49.390Z,100.00
2024-03-02T22:05:15.843Z,100.00
2024-03-02T22:07:44.710Z,100.00
2024-03-02T22:10:11.243Z,100.00
2024-03-02T22:12:38.284Z,100.00
2024-03-02T22:15:08.210Z,100.00
2024-03-02T22:17:34.944Z,100.00
2024-03-02T22:20:01.586Z,100.00
2024-03-02T22:22:30.702Z,100.00
2024-03-02T22:24:57.243Z,100.00
2024-03-02T22:27:26.822Z,100.00
2024-03-02T22:29:53.356Z,100.00
2024-03-02T22:32:20.971Z,100.00
2024-03-02T22:34:50.208Z,100.00
2024-03-02T22:37:16.657Z,100.00
2024-03-02T22:39:43.249Z,100.00
2024-03-02T22:42:09.833Z,100.00
2024-03-02T22:44:36.332Z,100.00
2024-03-02T22:47:03.004Z,100.00
2024-03-02T22:49:30.022Z,100.00
2024-03-02T22:51:58.109Z,100.00
2024-03-02T22:54:24.627Z,100.00
2024-03-02T22:56:51.189Z,100.00
2024-03-02T22:59:17.781Z,100.00
2024-03-02T23:01:44.436Z,100.00
2024-03-02T23:04:12.284Z,100.00
2024-03-02T23:06:38.825Z,100.00
2024-03-02T23:09:05.948Z,100.00
2024-03-02T23:11:32.489Z,100.00
2024-03-02T23:13:58.909Z,100.00
2024-03-02T23:16:28.280Z,100.00
2024-03-02T23:18:55.527Z,100.00
2024-03-02T23:21:22.163Z,100.00
2024-03-02T23:23:49.768Z,100.00
2024-03-02T23:26:16.274Z,100.00
2024-03-02T23:28:42.748Z,100.00
2024-03-02T23:31:10.742Z,100.00
2024-03-02T23:33:38.327Z,100.00
2024-03-02T23:36:05.164Z,100.00
2024-03-02T23:38:31.843Z,100.00
2024-03-02T23:40:58.353Z,100.00
2024-03-02T23:43:24.965Z,100.00
2024-03-02T23:45:52.554Z,100.00
2024-03-02T23:48:21.253Z,100.00
2024-03-02T23:50:47.797Z,100.00
2024-03-02T23:53:14.363Z,100.00
2024-03-02T23:55:51.633Z,100.00
2024-03-02T23:58:20.154Z,100.00
